createdAt,value
2022-12-13T00:02:01.014Z,-5.14
2022-12-13T00:07:49.120Z,-5.15
2022-12-13T00:13:23.502Z,-5.06
2022-12-13T00:19:16.962Z,-5.09
2022-12-13T00:22:04.995Z,-5.15
2022-12-13T00:27:44.313Z,-5.24
2022-12-13T00:33:16.170Z,-5.20
2022-12-13T00:38:51.694Z,-5.17
2022-12-13T00:41:43.625Z,-5.34
2022-12-13T00:44:32.082Z,-5.21
2022-12-13T00:50:12.990Z,-5.31
2022-12-13T00:55:46.265Z,-5.59
2022-12-13T01:01:24.836Z,-5.53
2022-12-13T01:04:13.527Z,-5.59
2022-12-13T01:07:02.170Z,-5.53
2022-12-13T01:12:32.355Z,-5.37
2022-12-13T01:18:10.559Z,-5.40
2022-12-13T01:23:57.164Z,-5.47
2022-12-13T01:29:27.015Z,-5.40
2022-12-13T01:35:04.336Z,-5.26
2022-12-13T01:40:38.528Z,-5.28
2022-12-13T01:46:06.643Z,-5.40
2022-12-13T01:51:40.509Z,-5.36
2022-12-13T01:57:20.660Z,-5.44
2022-12-13T02:00:14.176Z,-5.45
2022-12-13T02:05:49.204Z,-5.35
2022-12-13T02:14:09.831Z,-5.23
2022-12-13T02:20:21.736Z,-5.45
2022-12-13T02:23:20.895Z,-5.62
2022-12-13T02:26:27.542Z,-5.69
2022-12-13T02:32:13.791Z,-5.79
2022-12-13T02:35:06.640Z,-5.75
2022-12-13T02:40:37.469Z,-5.71
2022-12-13T02:46:12.314Z,-5.50
2022-12-13T02:51:42.908Z,-5.35
2022-12-13T02:54:31.861Z,-5.49
2022-12-13T03:00:22.038Z,-5.69
2022-12-13T03:03:18.809Z,-5.57
2022-12-13T03:06:34.157Z,-5.57
2022-12-13T03:12:42.518Z,-5.53
2022-12-13T03:18:21.126Z,-5.40
2022-12-13T03:23:54.242Z,-5.63
2022-12-13T03:26:43.031Z,-5.67
2022-12-13T03:32:31.166Z,-5.75
2022-12-13T03:40:58.882Z,-5.74
2022-12-13T03:46:33.125Z,-5.62
2022-12-13T03:52:02.337Z,-5.86
2022-12-13T03:57:36.046Z,-6.03
2022-12-13T04:03:13.314Z,-5.96
2022-12-13T04:08:54.103Z,-5.95
2022-12-13T04:14:23.198Z,-6.02
2022-12-13T04:17:12.628Z,-5.97
2022-12-13T04:22:42.113Z,-5.73
2022-12-13T04:28:25.210Z,-5.76
2022-12-13T04:33:58.149Z,-5.92
2022-12-13T04:39:33.912Z,-5.86
2022-12-13T04:45:03.719Z,-5.66
2022-12-13T04:50:38.217Z,-5.65
2022-12-13T04:59:14.028Z,-5.67
2022-12-13T05:04:40.832Z,-5.65
2022-12-13T05:10:32.123Z,-5.57
2022-12-13T05:18:51.293Z,-5.70
2022-12-13T05:24:31.459Z,-5.78
2022-12-13T05:27:24.908Z,-5.84
2022-12-13T05:33:01.815Z,-5.93
2022-12-13T05:35:52.894Z,-6.02
2022-12-13T05:41:33.311Z,-6.23
2022-12-13T05:47:02.973Z,-5.87
2022-12-13T05:52:38.016Z,-5.83
2022-12-13T05:58:13.283Z,-5.76
2022-12-13T06:03:48.070Z,-5.67
2022-12-13T06:09:25.140Z,-6.01
2022-12-13T06:15:01.694Z,-5.95
2022-12-13T06:17:50.523Z,-5.82
2022-12-13T06:23:24.430Z,-5.75
2022-12-13T06:28:54.327Z,-5.50
2022-12-13T06:34:26.366Z,-5.28
2022-12-13T06:40:01.051Z,-5.15
2022-12-13T06:45:31.675Z,-5.25
2022-12-13T06:51:03.318Z,-5.37
2022-12-13T06:56:38.774Z,-5.48
2022-12-13T06:59:27.236Z,-5.69
2022-12-13T07:04:58.815Z,-5.96
2022-12-13T07:07:47.651Z,-5.92
2022-12-13T07:13:26.976Z,-5.86
2022-12-13T07:19:00.746Z,-5.54
2022-12-13T07:24:29.697Z,-5.57
2022-12-13T07:30:15.049Z,-5.46
2022-12-13T07:35:55.707Z,-5.26
2022-12-13T07:41:32.644Z,-5.21
2022-12-13T07:47:06.930Z,-5.00
2022-12-13T07:52:36.679Z,-4.61
2022-12-13T07:55:33.605Z,-4.60
2022-12-13T08:01:00.646Z,-4.48
2022-12-13T08:06:28.970Z,-4.43
2022-12-13T08:12:08.606Z,-4.59
2022-12-13T08:17:42.989Z,-4.76
2022-12-13T08:26:02.556Z,-4.60
2022-12-13T08:31:38.949Z,-4.45
2022-12-13T08:34:27.256Z,-4.32
2022-12-13T08:40:05.574Z,-4.12
2022-12-13T08:51:24.636Z,-4.03
2022-12-13T08:56:54.281Z,-3.90
2022-12-13T08:59:42.436Z,-3.66
2022-12-13T09:05:34.061Z,-3.88
2022-12-13T09:11:00.678Z,-3.52
2022-12-13T09:16:35.916Z,-3.47
2022-12-13T09:22:33.168Z,-3.24
2022-12-13T09:25:24.282Z,-3.58
2022-12-13T09:30:49.773Z,-3.57
2022-12-13T09:36:21.808Z,-3.44
2022-12-13T09:44:43.774Z,-3.55
2022-12-13T09:50:15.045Z,-3.53
2022-12-13T10:01:22.543Z,-3.15
2022-12-13T10:07:03.584Z,-3.11
2022-12-13T10:12:44.586Z,-3.04
2022-12-13T10:18:16.111Z,-3.40
2022-12-13T10:24:23.159Z,-3.38
2022-12-13T10:29:22.443Z,-3.99
2022-12-13T10:32:14.949Z,-4.05
2022-12-13T10:38:31.572Z,-4.04
2022-12-13T10:54:48.342Z,-2.84
2022-12-13T11:00:44.488Z,-2.54
2022-12-13T11:09:02.927Z,-2.63
2022-12-13T11:17:24.406Z,-2.88
2022-12-13T11:23:04.942Z,-3.53
2022-12-13T11:31:24.898Z,-3.54
2022-12-13T11:40:01.653Z,-2.75
2022-12-13T11:45:32.460Z,-2.51
2022-12-13T11:51:13.212Z,-3.13
2022-12-13T11:54:04.514Z,-3.12
2022-12-13T11:57:00.717Z,-2.86
2022-12-13T12:05:31.764Z,-2.96
2022-12-13T12:11:13.433Z,-2.78
2022-12-13T12:16:48.288Z,-2.71
2022-12-13T12:22:24.220Z,-2.47
2022-12-13T12:28:13.291Z,-2.53
2022-12-13T12:33:52.315Z,-2.09
2022-12-13T13:13:12.594Z,-3.17
2022-12-13T13:15:59.318Z,-3.20
2022-12-13T13:36:52.692Z,-2.95
2022-12-13T13:43:21.502Z,-2.73
2022-12-13T13:46:13.774Z,-2.66
2022-12-13T13:52:24.456Z,-2.63
2022-12-13T13:55:37.378Z,-2.64
2022-12-13T14:05:23.598Z,-2.70
2022-12-13T14:33:31.981Z,-3.15
2022-12-13T14:39:24.746Z,-3.23
2022-12-13T14:45:22.124Z,-3.32
2022-12-13T14:48:28.474Z,-3.25
2022-12-13T14:59:18.788Z,-3.16
2022-12-13T15:07:49.274Z,-3.01
2022-12-13T15:10:40.695Z,-3.09
2022-12-13T15:16:11.895Z,-2.76
2022-12-13T15:22:01.717Z,-2.82
2022-12-13T15:27:34.626Z,-2.95
2022-12-13T15:39:02.912Z,-2.89
2022-12-13T15:44:40.533Z,-2.82
2022-12-13T15:50:36.163Z,-2.97
2022-12-13T15:59:29.248Z,-2.83
2022-12-13T16:05:09.394Z,-2.98
2022-12-13T16:10:49.733Z,-2.99
2022-12-13T16:16:28.326Z,-2.93
2022-12-13T16:27:32.719Z,-3.14
2022-12-13T16:33:28.638Z,-3.44
2022-12-13T16:36:16.951Z,-3.58
2022-12-13T16:41:54.528Z,-3.81
2022-12-13T16:44:43.266Z,-3.79
2022-12-13T16:47:41.859Z,-3.80
2022-12-13T16:50:43.046Z,-4.06
2022-12-13T16:53:31.589Z,-4.00
2022-12-13T16:59:10.454Z,-3.83
2022-12-13T17:04:50.396Z,-3.95
2022-12-13T17:07:38.822Z,-3.68
2022-12-13T17:13:10.841Z,-3.74
2022-12-13T17:18:51.880Z,-3.79
2022-12-13T17:24:26.287Z,-3.96
2022-12-13T17:27:14.543Z,-3.97
2022-12-13T17:30:08.256Z,-4.08
2022-12-13T17:35:51.591Z,-3.65
2022-12-13T17:42:30.035Z,-3.38
2022-12-13T17:48:01.287Z,-3.17
2022-12-13T17:56:39.440Z,-2.90
2022-12-13T17:59:28.163Z,-3.08
2022-12-13T18:05:17.721Z,-2.95
2022-12-13T18:13:34.233Z,-2.80
2022-12-13T18:19:09.860Z,-2.65
2022-12-13T18:27:38.107Z,-2.70
2022-12-13T18:30:28.006Z,-2.66
2022-12-13T18:33:17.008Z,-2.56
2022-12-13T18:38:55.403Z,-2.49
2022-12-13T18:44:32.376Z,-2.61
2022-12-13T18:50:04.537Z,-2.78
2022-12-13T18:52:52.986Z,-2.69
2022-12-13T18:58:27.455Z,-2.64
2022-12-13T19:04:03.178Z,-2.74
2022-12-13T19:06:52.950Z,-2.72
2022-12-13T19:12:31.844Z,-2.64
2022-12-13T19:18:11.305Z,-2.64
2022-12-13T19:23:42.497Z,-2.81
2022-12-13T19:29:25.982Z,-2.68
2022-12-13T19:35:21.911Z,-2.66
2022-12-13T19:38:24.748Z,-2.82
2022-12-13T19:41:14.795Z,-2.67
2022-12-13T19:44:05.085Z,-2.60
2022-12-13T19:53:00.317Z,-2.42
2022-12-13T19:58:59.301Z,-2.43
2022-12-13T20:07:23.793Z,-2.61
2022-12-13T20:10:12.793Z,-2.42
2022-12-13T20:15:51.751Z,-2.39
2022-12-13T20:22:30.017Z,-2.36
2022-12-13T20:30:50.343Z,-2.50
2022-12-13T20:36:27.093Z,-2.42
2022-12-13T20:39:15.669Z,-2.56
2022-12-13T20:44:45.749Z,-2.49
2022-12-13T20:47:38.029Z,-2.45
2022-12-13T20:56:02.023Z,-2.49
2022-12-13T20:58:52.708Z,-2.70
2022-12-13T21:04:23.561Z,-2.58
2022-12-13T21:10:01.946Z,-2.40
2022-12-13T21:15:39.525Z,-2.29
2022-12-13T21:18:29.388Z,-2.45
2022-12-13T21:21:18.758Z,-2.40
2022-12-13T21:24:08.206Z,-2.24
2022-12-13T21:29:41.457Z,-2.20
2022-12-13T21:35:43.975Z,-2.40
2022-12-13T21:38:32.703Z,-2.36
2022-12-13T21:52:34.456Z,-2.33
2022-12-13T21:58:33.280Z,-2.35
2022-12-13T22:04:12.022Z,-2.54
2022-12-13T22:12:43.778Z,-2.18
2022-12-13T22:18:21.143Z,-2.23
2022-12-13T22:21:09.269Z,-2.37
2022-12-13T22:23:58.356Z,-2.28
2022-12-13T22:29:35.742Z,-2.33
2022-12-13T22:35:08.487Z,-2.64
2022-12-13T22:38:01.379Z,-2.90
2022-12-13T22:43:37.346Z,-2.50
2022-12-13T22:49:13.660Z,-2.56
2022-12-13T22:54:49.777Z,-2.54
2022-12-13T23:00:17.080Z,-2.72
2022-12-13T23:06:08.944Z,-2.84
2022-12-13T23:12:00.939Z,-2.93
2022-12-13T23:17:33.363Z,-2.84
2022-12-13T23:23:21.437Z,-2.82
2022-12-13T23:26:14.402Z,-2.73
2022-12-13T23:31:48.963Z,-2.55
2022-12-13T23:34:35.883Z,-2.53
2022-12-13T23:40:13.609Z,-2.56
2022-12-13T23:45:45.184Z,-2.41
2022-12-13T23:51:18.627Z,-2.29
2022-12-13T23:56:54.059Z,-2.17
